sensor_id;sensor_type;location;lat;lon;timestamp;temperature;humidity
21602;DHT22;10963;50.934;4.668;2023-02-25T00:01:05;5.30;99.90
21602;DHT22;10963;50.934;4.668;2023-02-25T00:03:34;5.30;99.90
21602;DHT22;10963;50.934;4.668;2023-02-25T00:06:04;5.20;99.90
21602;DHT22;10963;50.934;4.668;2023-02-25T00:08:31;5.20;99.90
21602;DHT22;10963;50.934;4.668;2023-02-25T00:11:02;5.10;99.90
21602;DHT22;10963;50.934;4.668;2023-02-25T00:13:31;5.10;99.90
21602;DHT22;10963;50.934;4.668;2023-02-25T00:15:57;5.00;99.90
21602;DHT22;10963;50.934;4.668;2023-02-25T00:18:29;5.00;99.90
21602;DHT22;10963;50.934;4.668;2023-02-25T00:20:58;5.00;99.90
21602;DHT22;10963;50.934;4.668;2023-02-25T00:23:26;4.90;99.90
21602;DHT22;10963;50.934;4.668;2023-02-25T00:26:06;4.90;99.90
21602;DHT22;10963;50.934;4.668;2023-02-25T00:28:35;4.90;99.90
21602;DHT22;10963;50.934;4.668;2023-02-25T00:31:21;5.10;99.90
21602;DHT22;10963;50.934;4.668;2023-02-25T00:33:52;5.00;99.90
21602;DHT22;10963;50.934;4.668;2023-02-25T00:36:23;4.80;99.90
21602;DHT22;10963;50.934;4.668;2023-02-25T00:38:54;4.70;99.90
21602;DHT22;10963;50.934;4.668;2023-02-25T00:41:24;4.60;99.90
21602;DHT22;10963;50.934;4.668;2023-02-25T00:43:55;4.60;99.90
21602;DHT22;10963;50.934;4.668;2023-02-25T00:46:21;4.60;99.90
21602;DHT22;10963;50.934;4.668;2023-02-25T00:48:49;4.50;99.90
21602;DHT22;10963;50.934;4.668;2023-02-25T00:51:18;4.50;99.90
21602;DHT22;10963;50.934;4.668;2023-02-25T00:53:44;4.50;99.90
21602;DHT22;10963;50.934;4.668;2023-02-25T00:56:12;4.50;99.90
21602;DHT22;10963;50.934;4.668;2023-02-25T00:58:50;4.60;99.90
21602;DHT22;10963;50.934;4.668;2023-02-25T01:03:48;4.90;99.90
21602;DHT22;10963;50.934;4.668;2023-02-25T01:06:16;5.00;99.90
21602;DHT22;10963;50.934;4.668;2023-02-25T01:08:42;5.10;99.90
21602;DHT22;10963;50.934;4.668;2023-02-25T01:11:14;5.10;99.90
21602;DHT22;10963;50.934;4.668;2023-02-25T01:13:42;5.40;99.90
21602;DHT22;10963;50.934;4.668;2023-02-25T01:16:13;5.40;99.90
21602;DHT22;10963;50.934;4.668;2023-02-25T01:18:42;5.40;99.90
21602;DHT22;10963;50.934;4.668;2023-02-25T01:21:19;5.40;99.90
21602;DHT22;10963;50.934;4.668;2023-02-25T01:23:46;5.40;99.90
21602;DHT22;10963;50.934;4.668;2023-02-25T01:26:12;5.30;99.90
21602;DHT22;10963;50.934;4.668;2023-02-25T01:28:41;5.30;99.90
21602;DHT22;10963;50.934;4.668;2023-02-25T01:31:16;5.20;99.90
21602;DHT22;10963;50.934;4.668;2023-02-25T01:33:47;5.10;99.90
21602;DHT22;10963;50.934;4.668;2023-02-25T01:36:17;5.10;99.90
21602;DHT22;10963;50.934;4.668;2023-02-25T01:38:42;5.20;99.90
21602;DHT22;10963;50.934;4.668;2023-02-25T01:41:10;5.20;99.90
21602;DHT22;10963;50.934;4.668;2023-02-25T01:43:36;5.30;99.90
21602;DHT22;10963;50.934;4.668;2023-02-25T01:46:02;5.40;99.90
21602;DHT22;10963;50.934;4.668;2023-02-25T01:48:30;5.40;99.90
21602;DHT22;10963;50.934;4.668;2023-02-25T01:51:02;5.20;99.90
21602;DHT22;10963;50.934;4.668;2023-02-25T01:53:43;5.30;99.90
21602;DHT22;10963;50.934;4.668;2023-02-25T01:56:11;5.30;99.90
21602;DHT22;10963;50.934;4.668;2023-02-25T01:58:39;5.40;99.90
21602;DHT22;10963;50.934;4.668;2023-02-25T02:01:14;5.30;99.90
21602;DHT22;10963;50.934;4.668;2023-02-25T02:03:43;5.30;99.90
21602;DHT22;10963;50.934;4.668;2023-02-25T02:06:28;5.30;99.90
21602;DHT22;10963;50.934;4.668;2023-02-25T02:08:56;5.20;99.90
21602;DHT22;10963;50.934;4.668;2023-02-25T02:11:22;5.20;99.90
21602;DHT22;10963;50.934;4.668;2023-02-25T02:13:54;5.00;99.90
21602;DHT22;10963;50.934;4.668;2023-02-25T02:16:47;4.90;99.90
21602;DHT22;10963;50.934;4.668;2023-02-25T02:22:17;4.80;99.90
21602;DHT22;10963;50.934;4.668;2023-02-25T02:42:37;4.80;99.90
21602;DHT22;10963;50.934;4.668;2023-02-25T02:45:23;4.80;99.90
21602;DHT22;10963;50.934;4.668;2023-02-25T02:48:02;4.90;99.90
21602;DHT22;10963;50.934;4.668;2023-02-25T02:50:47;5.00;99.90
21602;DHT22;10963;50.934;4.668;2023-02-25T02:53:36;5.10;99.90
21602;DHT22;10963;50.934;4.668;2023-02-25T02:56:05;5.10;99.90
21602;DHT22;10963;50.934;4.668;2023-02-25T03:01:09;5.20;99.90
21602;DHT22;10963;50.934;4.668;2023-02-25T03:03:39;5.20;99.90
21602;DHT22;10963;50.934;4.668;2023-02-25T03:06:17;5.30;99.90
21602;DHT22;10963;50.934;4.668;2023-02-25T03:08:53;5.50;99.90
21602;DHT22;10963;50.934;4.668;2023-02-25T03:11:20;5.50;99.90
21602;DHT22;10963;50.934;4.668;2023-02-25T03:13:46;5.50;99.90
21602;DHT22;10963;50.934;4.668;2023-02-25T03:16:27;5.60;99.90
21602;DHT22;10963;50.934;4.668;2023-02-25T03:19:04;5.60;99.90
21602;DHT22;10963;50.934;4.668;2023-02-25T03:21:40;5.60;99.90
21602;DHT22;10963;50.934;4.668;2023-02-25T03:24:09;5.50;99.90
21602;DHT22;10963;50.934;4.668;2023-02-25T03:26:38;5.50;99.90
21602;DHT22;10963;50.934;4.668;2023-02-25T03:29:14;5.50;99.90
21602;DHT22;10963;50.934;4.668;2023-02-25T03:31:55;5.60;99.90
21602;DHT22;10963;50.934;4.668;2023-02-25T03:34:34;5.60;99.90
21602;DHT22;10963;50.934;4.668;2023-02-25T03:37:04;5.50;99.90
21602;DHT22;10963;50.934;4.668;2023-02-25T03:39:36;5.60;99.90
21602;DHT22;10963;50.934;4.668;2023-02-25T03:42:05;5.60;99.90
21602;DHT22;10963;50.934;4.668;2023-02-25T03:44:49;5.60;99.90
21602;DHT22;10963;50.934;4.668;2023-02-25T03:47:17;5.60;99.90
21602;DHT22;10963;50.934;4.668;2023-02-25T03:49:49;5.60;99.90
21602;DHT22;10963;50.934;4.668;2023-02-25T03:52:22;5.60;99.90
21602;DHT22;10963;50.934;4.668;2023-02-25T03:54:53;5.70;99.90
21602;DHT22;10963;50.934;4.668;2023-02-25T03:57:20;5.40;99.90
21602;DHT22;10963;50.934;4.668;2023-02-25T03:59:52;5.50;99.90
21602;DHT22;10963;50.934;4.668;2023-02-25T04:02:28;5.50;99.90
21602;DHT22;10963;50.934;4.668;2023-02-25T04:04:55;5.60;99.90
21602;DHT22;10963;50.934;4.668;2023-02-25T04:07:22;5.70;99.90
21602;DHT22;10963;50.934;4.668;2023-02-25T04:09:47;5.60;99.90
21602;DHT22;10963;50.934;4.668;2023-02-25T04:12:13;5.70;99.90
21602;DHT22;10963;50.934;4.668;2023-02-25T04:14:41;5.80;99.90
21602;DHT22;10963;50.934;4.668;2023-02-25T04:17:09;5.80;99.90
21602;DHT22;10963;50.934;4.668;2023-02-25T04:19:38;5.70;99.90
21602;DHT22;10963;50.934;4.668;2023-02-25T04:22:07;5.70;99.90
21602;DHT22;10963;50.934;4.668;2023-02-25T04:24:33;5.60;99.90
21602;DHT22;10963;50.934;4.668;2023-02-25T04:27:01;5.60;99.90
21602;DHT22;10963;50.934;4.668;2023-02-25T04:29:28;5.80;99.90
21602;DHT22;10963;50.934;4.668;2023-02-25T04:31:56;5.80;99.90
21602;DHT22;10963;50.934;4.668;2023-02-25T04:34:23;5.70;99.90
21602;DHT22;10963;50.934;4.668;2023-02-25T04:36:52;5.70;99.90
21602;DHT22;10963;50.934;4.668;2023-02-25T04:39:18;5.70;99.90
21602;DHT22;10963;50.934;4.668;2023-02-25T04:41:47;5.60;99.90
21602;DHT22;10963;50.934;4.668;2023-02-25T04:44:12;5.70;99.90
21602;DHT22;10963;50.934;4.668;2023-02-25T04:46:39;5.70;99.90
21602;DHT22;10963;50.934;4.668;2023-02-25T04:49:07;5.80;99.90
21602;DHT22;10963;50.934;4.668;2023-02-25T04:51:34;5.80;99.90
21602;DHT22;10963;50.934;4.668;2023-02-25T04:54:00;5.80;99.90
21602;DHT22;10963;50.934;4.668;2023-02-25T04:56:28;5.90;99.90
21602;DHT22;10963;50.934;4.668;2023-02-25T04:58:56;5.90;99.90
21602;DHT22;10963;50.934;4.668;2023-02-25T05:01:24;5.90;99.90
21602;DHT22;10963;50.934;4.668;2023-02-25T05:03:53;5.70;99.90
21602;DHT22;10963;50.934;4.668;2023-02-25T05:06:26;5.70;99.90
21602;DHT22;10963;50.934;4.668;2023-02-25T05:08:52;5.80;99.90
21602;DHT22;10963;50.934;4.668;2023-02-25T05:11:18;5.90;99.90
21602;DHT22;10963;50.934;4.668;2023-02-25T05:13:45;5.80;99.90
21602;DHT22;10963;50.934;4.668;2023-02-25T05:16:13;5.80;99.90
21602;DHT22;10963;50.934;4.668;2023-02-25T05:18:42;5.80;99.90
21602;DHT22;10963;50.934;4.668;2023-02-25T05:21:09;5.70;99.90
21602;DHT22;10963;50.934;4.668;2023-02-25T05:23:39;5.70;99.90
21602;DHT22;10963;50.934;4.668;2023-02-25T05:26:08;5.80;99.90
21602;DHT22;10963;50.934;4.668;2023-02-25T05:28:35;5.80;99.90
21602;DHT22;10963;50.934;4.668;2023-02-25T05:31:08;5.90;99.90
21602;DHT22;10963;50.934;4.668;2023-02-25T05:33:40;5.80;99.90
21602;DHT22;10963;50.934;4.668;2023-02-25T05:36:12;5.80;99.90
21602;DHT22;10963;50.934;4.668;2023-02-25T05:38:38;5.70;99.90
21602;DHT22;10963;50.934;4.668;2023-02-25T05:41:10;5.60;99.90
21602;DHT22;10963;50.934;4.668;2023-02-25T05:43:38;5.70;99.90
21602;DHT22;10963;50.934;4.668;2023-02-25T05:46:07;5.80;99.90
21602;DHT22;10963;50.934;4.668;2023-02-25T05:48:42;5.80;99.90
21602;DHT22;10963;50.934;4.668;2023-02-25T05:51:13;5.70;99.90
21602;DHT22;10963;50.934;4.668;2023-02-25T05:53:40;5.90;99.90
21602;DHT22;10963;50.934;4.668;2023-02-25T05:56:10;5.90;99.90
21602;DHT22;10963;50.934;4.668;2023-02-25T05:58:36;6.10;99.90
21602;DHT22;10963;50.934;4.668;2023-02-25T06:01:08;5.90;99.90
21602;DHT22;10963;50.934;4.668;2023-02-25T06:03:40;5.60;99.90
21602;DHT22;10963;50.934;4.668;2023-02-25T06:06:07;5.50;99.90
21602;DHT22;10963;50.934;4.668;2023-02-25T06:08:33;5.40;99.90
21602;DHT22;10963;50.934;4.668;2023-02-25T06:10:59;5.30;99.90
21602;DHT22;10963;50.934;4.668;2023-02-25T06:13:29;5.20;99.90
21602;DHT22;10963;50.934;4.668;2023-02-25T06:15:57;5.30;99.90
21602;DHT22;10963;50.934;4.668;2023-02-25T06:18:23;5.40;99.90
21602;DHT22;10963;50.934;4.668;2023-02-25T06:20:51;5.40;99.90
21602;DHT22;10963;50.934;4.668;2023-02-25T06:23:19;5.50;99.90
21602;DHT22;10963;50.934;4.668;2023-02-25T06:25:45;5.50;99.90
21602;DHT22;10963;50.934;4.668;2023-02-25T06:28:15;5.50;99.90
21602;DHT22;10963;50.934;4.668;2023-02-25T06:30:40;5.40;99.90
21602;DHT22;10963;50.934;4.668;2023-02-25T06:33:07;5.40;99.90
21602;DHT22;10963;50.934;4.668;2023-02-25T06:35:33;5.40;99.90
21602;DHT22;10963;50.934;4.668;2023-02-25T06:38:00;5.60;99.90
21602;DHT22;10963;50.934;4.668;2023-02-25T06:40:31;5.60;99.90
21602;DHT22;10963;50.934;4.668;2023-02-25T06:42:59;5.70;99.90
21602;DHT22;10963;50.934;4.668;2023-02-25T06:45:25;5.60;99.90
21602;DHT22;10963;50.934;4.668;2023-02-25T06:47:51;5.70;99.90
21602;DHT22;10963;50.934;4.668;2023-02-25T06:50:17;5.70;99.90
21602;DHT22;10963;50.934;4.668;2023-02-25T06:52:45;5.70;99.90
21602;DHT22;10963;50.934;4.668;2023-02-25T06:55:13;5.80;99.90
21602;DHT22;10963;50.934;4.668;2023-02-25T06:57:43;5.80;99.90
21602;DHT22;10963;50.934;4.668;2023-02-25T07:00:10;5.80;99.90
21602;DHT22;10963;50.934;4.668;2023-02-25T07:02:36;5.90;99.90
21602;DHT22;10963;50.934;4.668;2023-02-25T07:05:04;6.10;99.90
21602;DHT22;10963;50.934;4.668;2023-02-25T07:07:31;6.10;99.90
21602;DHT22;10963;50.934;4.668;2023-02-25T07:09:56;6.00;99.90
21602;DHT22;10963;50.934;4.668;2023-02-25T07:12:22;6.10;99.90
21602;DHT22;10963;50.934;4.668;2023-02-25T07:14:48;6.00;99.90
21602;DHT22;10963;50.934;4.668;2023-02-25T07:17:19;6.00;99.90
21602;DHT22;10963;50.934;4.668;2023-02-25T07:19:47;6.00;99.90
21602;DHT22;10963;50.934;4.668;2023-02-25T07:22:17;6.10;99.90
21602;DHT22;10963;50.934;4.668;2023-02-25T07:24:43;6.20;99.90
21602;DHT22;10963;50.934;4.668;2023-02-25T07:27:11;6.40;99.90
21602;DHT22;10963;50.934;4.668;2023-02-25T07:29:37;6.50;99.90
21602;DHT22;10963;50.934;4.668;2023-02-25T07:32:03;6.50;99.90
21602;DHT22;10963;50.934;4.668;2023-02-25T07:34:29;6.60;99.90
21602;DHT22;10963;50.934;4.668;2023-02-25T07:36:55;6.70;99.90
21602;DHT22;10963;50.934;4.668;2023-02-25T07:39:23;6.60;99.90
21602;DHT22;10963;50.934;4.668;2023-02-25T07:41:49;6.50;99.90
21602;DHT22;10963;50.934;4.668;2023-02-25T07:44:17;6.40;99.90
21602;DHT22;10963;50.934;4.668;2023-02-25T07:46:43;6.20;99.90
21602;DHT22;10963;50.934;4.668;2023-02-25T07:49:09;6.30;99.90
21602;DHT22;10963;50.934;4.668;2023-02-25T07:51:34;6.30;99.90
21602;DHT22;10963;50.934;4.668;2023-02-25T07:54:00;6.30;99.90
21602;DHT22;10963;50.934;4.668;2023-02-25T07:56:27;6.40;99.90
21602;DHT22;10963;50.934;4.668;2023-02-25T07:58:53;6.30;99.90
21602;DHT22;10963;50.934;4.668;2023-02-25T08:01:23;6.30;99.90
21602;DHT22;10963;50.934;4.668;2023-02-25T08:03:57;6.50;99.90
21602;DHT22;10963;50.934;4.668;2023-02-25T08:06:23;6.50;99.90
21602;DHT22;10963;50.934;4.668;2023-02-25T08:08:49;6.50;99.90
21602;DHT22;10963;50.934;4.668;2023-02-25T08:11:21;6.40;99.90
21602;DHT22;10963;50.934;4.668;2023-02-25T08:13:50;6.50;99.90
21602;DHT22;10963;50.934;4.668;2023-02-25T08:16:17;6.50;99.90
21602;DHT22;10963;50.934;4.668;2023-02-25T08:18:43;6.60;99.90
21602;DHT22;10963;50.934;4.668;2023-02-25T08:21:10;6.60;99.90
21602;DHT22;10963;50.934;4.668;2023-02-25T08:23:36;6.70;99.90
21602;DHT22;10963;50.934;4.668;2023-02-25T08:26:02;6.90;99.90
21602;DHT22;10963;50.934;4.668;2023-02-25T08:28:29;6.80;99.90
21602;DHT22;10963;50.934;4.668;2023-02-25T08:30:58;6.80;99.90
21602;DHT22;10963;50.934;4.668;2023-02-25T08:33:25;6.90;99.90
21602;DHT22;10963;50.934;4.668;2023-02-25T08:35:51;7.00;99.90
21602;DHT22;10963;50.934;4.668;2023-02-25T08:38:17;7.00;99.90
21602;DHT22;10963;50.934;4.668;2023-02-25T08:40:43;6.90;99.90
21602;DHT22;10963;50.934;4.668;2023-02-25T08:43:12;6.90;99.90
21602;DHT22;10963;50.934;4.668;2023-02-25T08:45:40;7.00;99.90
21602;DHT22;10963;50.934;4.668;2023-02-25T08:48:06;7.00;99.90
21602;DHT22;10963;50.934;4.668;2023-02-25T08:50:32;7.00;99.90
21602;DHT22;10963;50.934;4.668;2023-02-25T08:52:57;7.10;99.90
21602;DHT22;10963;50.934;4.668;2023-02-25T08:55:23;7.10;99.90
21602;DHT22;10963;50.934;4.668;2023-02-25T08:57:52;7.10;99.90
21602;DHT22;10963;50.934;4.668;2023-02-25T09:00:19;7.20;99.90
21602;DHT22;10963;50.934;4.668;2023-02-25T09:02:46;7.40;99.90
21602;DHT22;10963;50.934;4.668;2023-02-25T09:05:14;7.70;99.90
21602;DHT22;10963;50.934;4.668;2023-02-25T09:07:42;8.00;99.90
21602;DHT22;10963;50.934;4.668;2023-02-25T09:10:08;8.30;99.90
21602;DHT22;10963;50.934;4.668;2023-02-25T09:12:34;8.60;99.90
21602;DHT22;10963;50.934;4.668;2023-02-25T09:15:03;8.30;99.90
21602;DHT22;10963;50.934;4.668;2023-02-25T09:17:31;7.70;99.90
21602;DHT22;10963;50.934;4.668;2023-02-25T09:19:59;7.50;99.90
21602;DHT22;10963;50.934;4.668;2023-02-25T09:22:32;7.40;99.90
21602;DHT22;10963;50.934;4.668;2023-02-25T09:24:58;7.30;99.90
21602;DHT22;10963;50.934;4.668;2023-02-25T09:27:23;7.50;99.90
21602;DHT22;10963;50.934;4.668;2023-02-25T09:29:49;7.90;99.90
21602;DHT22;10963;50.934;4.668;2023-02-25T09:32:17;8.50;99.90
21602;DHT22;10963;50.934;4.668;2023-02-25T09:34:44;8.80;99.90
21602;DHT22;10963;50.934;4.668;2023-02-25T09:37:12;8.60;99.90
21602;DHT22;10963;50.934;4.668;2023-02-25T09:39:38;8.50;99.90
21602;DHT22;10963;50.934;4.668;2023-02-25T09:44:45;8.10;99.90
21602;DHT22;10963;50.934;4.668;2023-02-25T09:52:42;8.20;99.90
21602;DHT22;10963;50.934;4.668;2023-02-25T09:55:29;8.10;99.90
21602;DHT22;10963;50.934;4.668;2023-02-25T09:58:02;7.90;99.90
21602;DHT22;10963;50.934;4.668;2023-02-25T10:00:30;7.80;99.90
21602;DHT22;10963;50.934;4.668;2023-02-25T10:03:03;7.70;99.90
21602;DHT22;10963;50.934;4.668;2023-02-25T10:18:42;8.20;99.90
21602;DHT22;10963;50.934;4.668;2023-02-25T10:24:01;8.40;99.90
21602;DHT22;10963;50.934;4.668;2023-02-25T10:26:40;8.50;99.90
21602;DHT22;10963;50.934;4.668;2023-02-25T10:29:53;8.20;99.90
21602;DHT22;10963;50.934;4.668;2023-02-25T10:34:42;8.20;99.90
21602;DHT22;10963;50.934;4.668;2023-02-25T10:37:16;8.30;99.90
21602;DHT22;10963;50.934;4.668;2023-02-25T10:39:43;8.10;99.90
21602;DHT22;10963;50.934;4.668;2023-02-25T10:42:14;7.90;99.90
21602;DHT22;10963;50.934;4.668;2023-02-25T10:44:43;8.00;99.90
21602;DHT22;10963;50.934;4.668;2023-02-25T10:47:17;7.90;99.90
21602;DHT22;10963;50.934;4.668;2023-02-25T10:50:19;8.00;99.90
21602;DHT22;10963;50.934;4.668;2023-02-25T10:58:43;8.00;99.90
21602;DHT22;10963;50.934;4.668;2023-02-25T11:01:12;8.20;99.90
21602;DHT22;10963;50.934;4.668;2023-02-25T11:04:00;8.30;99.90
21602;DHT22;10963;50.934;4.668;2023-02-25T11:08:57;8.70;99.90
21602;DHT22;10963;50.934;4.668;2023-02-25T11:11:34;8.90;99.90
21602;DHT22;10963;50.934;4.668;2023-02-25T11:16:32;9.40;99.90
21602;DHT22;10963;50.934;4.668;2023-02-25T11:19:08;9.60;99.90
21602;DHT22;10963;50.934;4.668;2023-02-25T11:21:38;9.80;99.90
21602;DHT22;10963;50.934;4.668;2023-02-25T11:26:38;9.60;99.90
21602;DHT22;10963;50.934;4.668;2023-02-25T11:29:10;9.50;99.90
21602;DHT22;10963;50.934;4.668;2023-02-25T11:31:39;9.30;99.90
21602;DHT22;10963;50.934;4.668;2023-02-25T11:34:21;9.20;99.90
21602;DHT22;10963;50.934;4.668;2023-02-25T11:36:48;9.10;99.90
21602;DHT22;10963;50.934;4.668;2023-02-25T11:39:29;9.00;99.90
21602;DHT22;10963;50.934;4.668;2023-02-25T11:42:16;8.70;99.90
21602;DHT22;10963;50.934;4.668;2023-02-25T11:44:45;8.50;99.90
21602;DHT22;10963;50.934;4.668;2023-02-25T11:58:32;7.70;99.90
21602;DHT22;10963;50.934;4.668;2023-02-25T12:01:03;7.70;99.90
21602;DHT22;10963;50.934;4.668;2023-02-25T12:22:40;7.60;99.90
21602;DHT22;10963;50.934;4.668;2023-02-25T12:25:40;7.90;99.90
21602;DHT22;10963;50.934;4.668;2023-02-25T12:36:25;9.10;99.90
21602;DHT22;10963;50.934;4.668;2023-02-25T12:41:39;9.80;99.90
21602;DHT22;10963;50.934;4.668;2023-02-25T12:53:03;6.50;99.90
21602;DHT22;10963;50.934;4.668;2023-02-25T12:58:23;6.50;99.90
21602;DHT22;10963;50.934;4.668;2023-02-25T13:01:28;6.50;99.90
21602;DHT22;10963;50.934;4.668;2023-02-25T13:04:31;6.50;99.90
21602;DHT22;10963;50.934;4.668;2023-02-25T13:09:59;6.90;99.90
21602;DHT22;10963;50.934;4.668;2023-02-25T13:12:50;7.10;99.90
21602;DHT22;10963;50.934;4.668;2023-02-25T13:15:24;7.30;99.90
21602;DHT22;10963;50.934;4.668;2023-02-25T13:23:44;7.80;99.90
21602;DHT22;10963;50.934;4.668;2023-02-25T13:35:03;8.40;99.90
21602;DHT22;10963;50.934;4.668;2023-02-25T13:40:37;8.50;99.90
21602;DHT22;10963;50.934;4.668;2023-02-25T13:43:07;8.40;99.90
21602;DHT22;10963;50.934;4.668;2023-02-25T13:57:29;7.90;99.90
21602;DHT22;10963;50.934;4.668;2023-02-25T14:09:02;8.20;99.90
21602;DHT22;10963;50.934;4.668;2023-02-25T14:15:17;8.90;99.90
21602;DHT22;10963;50.934;4.668;2023-02-25T14:23:03;8.50;99.90
21602;DHT22;10963;50.934;4.668;2023-02-25T14:34:32;7.60;99.90
21602;DHT22;10963;50.934;4.668;2023-02-25T14:42:26;7.40;99.90
21602;DHT22;10963;50.934;4.668;2023-02-25T14:47:28;7.60;99.90
21602;DHT22;10963;50.934;4.668;2023-02-25T14:50:04;7.60;99.90
21602;DHT22;10963;50.934;4.668;2023-02-25T15:25:50;7.80;99.90
21602;DHT22;10963;50.934;4.668;2023-02-25T15:33:41;8.00;99.90
21602;DHT22;10963;50.934;4.668;2023-02-25T15:39:00;8.20;99.90
21602;DHT22;10963;50.934;4.668;2023-02-25T15:41:43;8.30;99.90
21602;DHT22;10963;50.934;4.668;2023-02-25T15:46:45;7.80;99.90
21602;DHT22;10963;50.934;4.668;2023-02-25T15:49:27;7.70;99.90
21602;DHT22;10963;50.934;4.668;2023-02-25T15:52:02;7.70;99.90
21602;DHT22;10963;50.934;4.668;2023-02-25T16:05:22;8.00;99.90
21602;DHT22;10963;50.934;4.668;2023-02-25T16:08:00;8.00;99.90
21602;DHT22;10963;50.934;4.668;2023-02-25T16:10:42;7.90;99.90
21602;DHT22;10963;50.934;4.668;2023-02-25T16:13:15;7.80;99.90
21602;DHT22;10963;50.934;4.668;2023-02-25T16:15:47;7.80;99.90
21602;DHT22;10963;50.934;4.668;2023-02-25T16:21:06;7.70;99.90
21602;DHT22;10963;50.934;4.668;2023-02-25T16:23:38;7.50;99.90
21602;DHT22;10963;50.934;4.668;2023-02-25T16:31:27;7.30;99.90
21602;DHT22;10963;50.934;4.668;2023-02-25T16:34:04;7.40;99.90
21602;DHT22;10963;50.934;4.668;2023-02-25T16:39:17;7.30;99.90
21602;DHT22;10963;50.934;4.668;2023-02-25T16:41:44;7.20;99.90
21602;DHT22;10963;50.934;4.668;2023-02-25T16:44:17;7.10;99.90
21602;DHT22;10963;50.934;4.668;2023-02-25T16:46:48;7.00;99.90
21602;DHT22;10963;50.934;4.668;2023-02-25T16:49:32;6.90;99.90
21602;DHT22;10963;50.934;4.668;2023-02-25T16:52:03;6.80;99.90
21602;DHT22;10963;50.934;4.668;2023-02-25T16:54:38;6.80;99.90
21602;DHT22;10963;50.934;4.668;2023-02-25T16:57:06;6.90;99.90
21602;DHT22;10963;50.934;4.668;2023-02-25T16:59:37;6.80;99.90
21602;DHT22;10963;50.934;4.668;2023-02-25T17:02:24;6.80;99.90
21602;DHT22;10963;50.934;4.668;2023-02-25T17:04:56;6.70;99.90
21602;DHT22;10963;50.934;4.668;2023-02-25T17:09:54;6.80;99.90
21602;DHT22;10963;50.934;4.668;2023-02-25T17:14:51;6.70;99.90
21602;DHT22;10963;50.934;4.668;2023-02-25T17:17:30;6.70;99.90
21602;DHT22;10963;50.934;4.668;2023-02-25T17:20:05;6.60;99.90
21602;DHT22;10963;50.934;4.668;2023-02-25T17:22:36;6.40;99.90
21602;DHT22;10963;50.934;4.668;2023-02-25T17:25:05;6.30;99.90
21602;DHT22;10963;50.934;4.668;2023-02-25T17:27:39;6.30;99.90
21602;DHT22;10963;50.934;4.668;2023-02-25T17:30:38;6.20;99.90
21602;DHT22;10963;50.934;4.668;2023-02-25T17:33:05;6.30;99.90
21602;DHT22;10963;50.934;4.668;2023-02-25T17:35:32;6.20;99.90
21602;DHT22;10963;50.934;4.668;2023-02-25T17:37:59;6.10;99.90
21602;DHT22;10963;50.934;4.668;2023-02-25T17:40:29;6.20;99.90
21602;DHT22;10963;50.934;4.668;2023-02-25T17:45:42;6.10;99.90
21602;DHT22;10963;50.934;4.668;2023-02-25T17:48:21;6.10;99.90
21602;DHT22;10963;50.934;4.668;2023-02-25T17:51:04;6.10;99.90
21602;DHT22;10963;50.934;4.668;2023-02-25T17:53:46;6.00;99.90
21602;DHT22;10963;50.934;4.668;2023-02-25T17:56:33;6.00;99.90
21602;DHT22;10963;50.934;4.668;2023-02-25T17:59:22;6.00;99.90
21602;DHT22;10963;50.934;4.668;2023-02-25T18:01:59;6.00;99.90
21602;DHT22;10963;50.934;4.668;2023-02-25T18:04:37;5.90;99.90
21602;DHT22;10963;50.934;4.668;2023-02-25T18:09:48;5.90;99.90
21602;DHT22;10963;50.934;4.668;2023-02-25T18:12:33;5.80;99.90
21602;DHT22;10963;50.934;4.668;2023-02-25T18:15:05;5.90;99.90
21602;DHT22;10963;50.934;4.668;2023-02-25T18:17:42;5.80;99.90
21602;DHT22;10963;50.934;4.668;2023-02-25T18:20:39;5.90;99.90
21602;DHT22;10963;50.934;4.668;2023-02-25T18:23:07;5.80;99.90
21602;DHT22;10963;50.934;4.668;2023-02-25T18:25:37;5.70;99.90
21602;DHT22;10963;50.934;4.668;2023-02-25T18:28:10;5.60;99.90
21602;DHT22;10963;50.934;4.668;2023-02-25T18:30:39;5.50;99.90
21602;DHT22;10963;50.934;4.668;2023-02-25T18:33:04;5.60;99.90
21602;DHT22;10963;50.934;4.668;2023-02-25T18:35:31;5.50;99.90
21602;DHT22;10963;50.934;4.668;2023-02-25T18:37:58;5.50;99.90
21602;DHT22;10963;50.934;4.668;2023-02-25T18:40:38;5.50;99.90
21602;DHT22;10963;50.934;4.668;2023-02-25T18:43:08;5.40;99.90
21602;DHT22;10963;50.934;4.668;2023-02-25T18:45:34;5.40;99.90
21602;DHT22;10963;50.934;4.668;2023-02-25T18:48:02;5.40;99.90
21602;DHT22;10963;50.934;4.668;2023-02-25T18:50:29;5.20;99.90
21602;DHT22;10963;50.934;4.668;2023-02-25T18:52:55;5.20;99.90
21602;DHT22;10963;50.934;4.668;2023-02-25T18:55:25;5.20;99.90
21602;DHT22;10963;50.934;4.668;2023-02-25T18:57:52;5.20;99.90
21602;DHT22;10963;50.934;4.668;2023-02-25T19:00:23;5.20;99.90
21602;DHT22;10963;50.934;4.668;2023-02-25T19:02:55;5.20;99.90
21602;DHT22;10963;50.934;4.668;2023-02-25T19:05:24;5.10;99.90
21602;DHT22;10963;50.934;4.668;2023-02-25T19:07:53;5.00;99.90
21602;DHT22;10963;50.934;4.668;2023-02-25T19:10:24;5.00;99.90
21602;DHT22;10963;50.934;4.668;2023-02-25T19:12:52;4.90;99.90
21602;DHT22;10963;50.934;4.668;2023-02-25T19:15:22;5.00;99.90
21602;DHT22;10963;50.934;4.668;2023-02-25T19:17:48;4.90;99.90
21602;DHT22;10963;50.934;4.668;2023-02-25T19:20:15;4.90;99.90
21602;DHT22;10963;50.934;4.668;2023-02-25T19:22:48;4.80;99.90
21602;DHT22;10963;50.934;4.668;2023-02-25T19:25:23;4.90;99.90
21602;DHT22;10963;50.934;4.668;2023-02-25T19:27:50;4.80;99.90
21602;DHT22;10963;50.934;4.668;2023-02-25T19:30:18;4.80;99.90
21602;DHT22;10963;50.934;4.668;2023-02-25T19:32:45;4.80;99.90
21602;DHT22;10963;50.934;4.668;2023-02-25T19:35:11;4.70;99.90
21602;DHT22;10963;50.934;4.668;2023-02-25T19:37:39;4.70;99.90
21602;DHT22;10963;50.934;4.668;2023-02-25T19:40:07;4.80;99.90
21602;DHT22;10963;50.934;4.668;2023-02-25T19:42:40;4.80;99.90
21602;DHT22;10963;50.934;4.668;2023-02-25T19:45:12;4.70;99.90
21602;DHT22;10963;50.934;4.668;2023-02-25T19:47:38;4.60;99.90
21602;DHT22;10963;50.934;4.668;2023-02-25T19:50:08;4.60;99.90
21602;DHT22;10963;50.934;4.668;2023-02-25T19:52:36;4.60;99.90
21602;DHT22;10963;50.934;4.668;2023-02-25T19:55:06;4.50;99.90
21602;DHT22;10963;50.934;4.668;2023-02-25T19:57:34;4.70;99.90
21602;DHT22;10963;50.934;4.668;2023-02-25T19:59:59;4.70;99.90
21602;DHT22;10963;50.934;4.668;2023-02-25T20:02:29;4.50;99.90
21602;DHT22;10963;50.934;4.668;2023-02-25T20:04:56;4.60;99.90
21602;DHT22;10963;50.934;4.668;2023-02-25T20:07:21;4.60;99.90
21602;DHT22;10963;50.934;4.668;2023-02-25T20:09:47;4.60;99.90
21602;DHT22;10963;50.934;4.668;2023-02-25T20:12:13;4.50;99.90
21602;DHT22;10963;50.934;4.668;2023-02-25T20:14:39;4.40;99.90
21602;DHT22;10963;50.934;4.668;2023-02-25T20:17:04;4.40;99.90
21602;DHT22;10963;50.934;4.668;2023-02-25T20:19:30;4.40;99.90
21602;DHT22;10963;50.934;4.668;2023-02-25T20:21:59;4.30;99.90
21602;DHT22;10963;50.934;4.668;2023-02-25T20:24:28;4.30;99.90
21602;DHT22;10963;50.934;4.668;2023-02-25T20:26:54;4.30;99.90
21602;DHT22;10963;50.934;4.668;2023-02-25T20:29:23;4.40;99.90